createdAt,value
2022-10-04T05:24:46.023Z,1.00
2022-10-04T07:12:49.049Z,1.20
2022-10-04T07:15:28.710Z,1.20
2022-10-04T07:17:59.022Z,1.47
2022-10-04T07:20:33.981Z,1.13
2022-10-04T07:23:08.440Z,1.10
2022-10-04T07:25:56.039Z,1.10
2022-10-04T07:28:58.366Z,1.10
2022-10-04T07:31:35.343Z,1.33
2022-10-04T07:34:17.409Z,1.20
2022-10-04T07:36:57.603Z,1.40
2022-10-04T07:39:50.540Z,1.40
2022-10-04T07:42:46.841Z,2.07
2022-10-04T07:45:30.342Z,1.30
2022-10-04T07:48:23.241Z,1.30
2022-10-04T07:51:26.780Z,1.20
2022-10-04T07:54:12.870Z,3.00
2022-10-04T07:56:55.266Z,1.33
2022-10-04T07:59:45.250Z,1.10
2022-10-04T08:03:02.110Z,1.10
2022-10-04T08:05:42.893Z,1.00
2022-10-04T08:08:46.831Z,1.10
2022-10-04T08:11:37.370Z,1.20
2022-10-04T08:14:42.094Z,1.50
2022-10-04T08:17:18.159Z,1.80
2022-10-04T08:19:53.719Z,1.33
2022-10-04T08:22:58.910Z,1.40
2022-10-04T08:25:29.576Z,2.40
2022-10-04T08:28:40.553Z,2.43
2022-10-04T08:31:40.046Z,2.20
2022-10-04T08:34:22.810Z,2.00
2022-10-04T08:36:53.186Z,2.30
2022-10-04T08:39:35.458Z,2.53
2022-10-04T08:42:41.958Z,2.20
2022-10-04T08:45:27.831Z,2.53
2022-10-04T08:48:19.170Z,9.30
2022-10-04T08:51:51.201Z,2.33
2022-10-04T08:54:35.477Z,2.87
2022-10-04T08:57:15.699Z,2.97
2022-10-04T09:00:40.524Z,2.63
2022-10-04T09:03:27.625Z,3.27
2022-10-04T09:06:01.259Z,3.40
2022-10-04T09:09:05.452Z,3.60
2022-10-04T09:11:51.555Z,3.70
2022-10-04T09:14:37.535Z,3.50
2022-10-04T09:17:36.195Z,3.73
2022-10-04T09:20:51.612Z,3.63
2022-10-04T09:23:40.548Z,4.10
2022-10-04T09:26:13.446Z,3.77
2022-10-04T09:29:05.387Z,3.77
2022-10-04T09:32:04.453Z,3.70
2022-10-04T09:35:12.455Z,3.90
2022-10-04T09:37:47.896Z,3.77
2022-10-04T09:40:50.604Z,3.63
2022-10-04T09:43:42.414Z,3.97
2022-10-04T09:46:49.536Z,3.70
2022-10-04T09:49:55.733Z,3.70
2022-10-04T09:52:33.489Z,4.00
2022-10-04T09:55:06.262Z,3.47
2022-10-04T09:57:52.191Z,4.10
2022-10-04T10:00:47.575Z,3.40
2022-10-04T10:03:48.238Z,3.30
2022-10-04T10:06:41.889Z,3.47
2022-10-04T10:10:09.866Z,3.53
2022-10-04T10:13:01.087Z,3.40
2022-10-04T10:15:59.526Z,4.20
2022-10-04T10:18:44.071Z,3.13
2022-10-04T10:21:44.718Z,3.00
2022-10-04T10:24:46.606Z,3.13
2022-10-04T10:27:31.421Z,3.40
2022-10-04T10:30:17.769Z,3.63
2022-10-04T10:33:03.214Z,2.93
2022-10-04T10:35:52.381Z,3.30
2022-10-04T10:38:48.233Z,2.90
2022-10-04T10:41:27.762Z,3.70
2022-10-04T10:44:19.858Z,3.17
2022-10-04T10:47:08.492Z,3.23
2022-10-04T10:49:48.667Z,2.90
2022-10-04T10:52:51.902Z,3.20
2022-10-04T10:55:50.872Z,3.00
2022-10-04T10:58:42.162Z,3.17
2022-10-04T11:01:35.004Z,3.47
2022-10-04T11:04:38.847Z,2.90
2022-10-04T11:07:43.402Z,3.13
2022-10-04T11:10:38.455Z,3.60
2022-10-04T11:13:19.179Z,3.50
2022-10-04T11:16:23.424Z,3.47
2022-10-04T11:19:21.131Z,5.07
2022-10-04T11:22:25.635Z,4.03
2022-10-04T11:25:07.777Z,3.73
2022-10-04T11:28:05.245Z,4.07
2022-10-04T11:30:56.259Z,3.90
2022-10-04T11:33:57.272Z,3.93
2022-10-04T11:36:55.222Z,6.00
2022-10-04T11:39:45.528Z,3.90
2022-10-04T11:42:51.486Z,3.83
2022-10-04T11:45:50.301Z,3.33
2022-10-04T11:48:38.434Z,3.50
2022-10-04T11:51:37.512Z,3.37
2022-10-04T11:54:41.809Z,4.07
2022-10-04T11:57:20.958Z,4.17
2022-10-04T12:00:09.097Z,4.10
2022-10-04T12:03:05.568Z,4.40
2022-10-04T12:05:38.667Z,4.10
2022-10-04T12:08:37.996Z,4.60
2022-10-04T12:11:26.205Z,4.30
2022-10-04T12:14:30.970Z,4.40
2022-10-04T12:17:28.895Z,4.50
2022-10-04T12:20:48.210Z,4.23
2022-10-04T12:23:54.102Z,4.40
2022-10-04T12:26:38.908Z,4.20
2022-10-04T12:29:43.380Z,4.40
2022-10-04T12:32:57.918Z,5.40
2022-10-04T12:35:43.330Z,4.57
2022-10-04T12:38:33.007Z,4.63
2022-10-04T12:41:35.061Z,4.67
2022-10-04T12:44:31.174Z,4.47
2022-10-04T12:47:39.872Z,4.50
2022-10-04T12:50:48.174Z,4.30
2022-10-04T12:53:36.500Z,4.33
2022-10-04T12:56:06.520Z,4.13
2022-10-04T12:59:18.273Z,4.50
2022-10-04T13:01:51.273Z,4.57
2022-10-04T13:04:36.702Z,4.40
2022-10-04T13:07:36.807Z,4.27
2022-10-04T13:10:24.049Z,4.43
2022-10-04T13:13:32.623Z,4.67
2022-10-04T13:19:23.111Z,4.30
2022-10-04T13:22:37.625Z,4.30
2022-10-04T13:25:12.575Z,4.00
2022-10-04T13:28:05.723Z,5.03
2022-10-04T13:30:46.397Z,4.00
2022-10-04T13:33:28.488Z,4.00
2022-10-04T13:36:11.567Z,3.80
2022-10-04T13:39:23.173Z,3.80
2022-10-04T13:42:28.802Z,3.50
2022-10-04T13:45:19.084Z,3.40
2022-10-04T13:48:21.704Z,3.90
2022-10-04T13:51:10.196Z,3.90
2022-10-04T13:54:21.717Z,3.60
2022-10-04T13:57:03.118Z,3.90
2022-10-04T14:00:02.366Z,4.20
2022-10-04T14:03:10.952Z,4.03
2022-10-04T14:05:57.061Z,4.03
2022-10-04T14:08:51.038Z,4.10
2022-10-04T14:11:54.954Z,3.63
2022-10-04T14:14:47.266Z,3.90
2022-10-04T14:17:42.167Z,3.30
2022-10-04T14:20:46.805Z,3.50
2022-10-04T14:23:43.084Z,3.20
2022-10-04T14:26:19.368Z,2.90
2022-10-04T14:29:21.796Z,2.60
2022-10-04T14:32:14.653Z,3.07
2022-10-04T14:35:02.384Z,2.40
2022-10-04T14:38:05.714Z,2.53
2022-10-04T14:41:02.911Z,2.40
2022-10-04T14:44:02.709Z,2.70
2022-10-04T14:47:13.685Z,2.80
2022-10-04T14:50:16.078Z,2.47
2022-10-04T14:53:24.304Z,2.70
2022-10-04T14:56:09.532Z,2.50
2022-10-04T14:59:14.730Z,2.80
2022-10-04T15:02:19.340Z,2.53
2022-10-04T15:04:51.314Z,2.27
2022-10-04T15:07:38.078Z,2.40
2022-10-04T15:10:19.090Z,2.50
2022-10-04T15:13:15.299Z,2.23
2022-10-04T15:16:16.914Z,2.13
2022-10-04T15:18:49.019Z,2.27
2022-10-04T15:21:46.908Z,2.30
2022-10-04T15:24:18.428Z,2.30
2022-10-04T15:27:19.493Z,2.30
2022-10-04T15:30:11.604Z,2.10
2022-10-04T15:33:02.677Z,2.20
2022-10-04T15:35:59.081Z,2.10
2022-10-04T15:38:53.722Z,2.17
2022-10-04T15:41:34.843Z,2.37
2022-10-04T15:44:47.944Z,2.60
2022-10-04T15:47:38.026Z,2.40
2022-10-04T15:50:31.462Z,2.60
2022-10-04T15:53:10.623Z,2.47
2022-10-04T15:56:07.336Z,2.30
2022-10-04T15:58:54.364Z,2.30
2022-10-04T16:02:19.835Z,2.33
2022-10-04T16:05:17.046Z,2.00
2022-10-04T16:08:09.789Z,2.30
2022-10-04T16:11:14.400Z,2.03
2022-10-04T16:14:16.248Z,1.60
2022-10-04T16:17:28.674Z,1.70
2022-10-04T16:20:11.321Z,1.50
2022-10-04T16:22:40.474Z,1.50
2022-10-04T16:25:38.739Z,1.50
2022-10-04T16:28:21.293Z,1.53
2022-10-04T16:31:27.029Z,1.40
2022-10-04T16:34:09.094Z,1.30
2022-10-04T16:36:54.615Z,1.20
2022-10-04T16:39:54.291Z,1.10
2022-10-04T16:42:53.555Z,1.20
2022-10-04T16:45:29.702Z,1.13
2022-10-04T16:48:33.879Z,0.93
2022-10-04T16:51:05.881Z,2.57
2022-10-04T16:54:10.165Z,1.00
2022-10-04T16:57:00.749Z,1.10
2022-10-04T16:59:41.861Z,1.00
2022-10-04T17:02:27.485Z,1.00
2022-10-04T17:05:33.665Z,0.90
2022-10-04T17:08:04.714Z,0.80
2022-10-04T17:10:40.167Z,0.77
2022-10-04T17:13:25.606Z,0.80
2022-10-04T17:16:11.975Z,0.73
2022-10-04T17:18:44.605Z,0.70
2022-10-04T17:21:33.253Z,0.70
2022-10-04T17:24:22.692Z,0.77
2022-10-04T17:27:26.313Z,0.70
2022-10-04T17:30:23.033Z,0.70
2022-10-04T17:33:27.228Z,0.60
2022-10-04T17:36:09.853Z,0.70
2022-10-04T17:39:01.035Z,0.70
2022-10-04T17:41:47.741Z,0.60
2022-10-04T17:44:36.973Z,0.60
2022-10-04T17:47:25.217Z,0.67
2022-10-04T17:50:34.726Z,0.70
2022-10-04T17:53:51.072Z,0.60
2022-10-04T17:56:29.716Z,0.70
2022-10-04T17:58:59.155Z,0.60
2022-10-04T18:01:31.867Z,0.70
2022-10-04T18:04:19.537Z,0.60
2022-10-04T18:06:53.346Z,0.70
2022-10-04T18:09:32.920Z,0.70
2022-10-04T18:12:24.009Z,0.60
2022-10-04T18:15:10.628Z,0.60
2022-10-04T18:17:49.913Z,2.50
2022-10-04T18:20:31.340Z,0.60
2022-10-04T18:23:24.774Z,0.70
2022-10-04T18:26:03.085Z,0.63
2022-10-04T18:28:34.702Z,0.70
2022-10-04T18:31:22.219Z,0.93
2022-10-04T18:33:54.155Z,0.60
2022-10-04T18:36:31.774Z,0.60
2022-10-04T18:39:17.652Z,0.60
2022-10-04T18:41:58.465Z,0.60
2022-10-04T18:44:59.079Z,0.60
2022-10-04T18:47:39.684Z,0.70
2022-10-04T18:50:32.214Z,0.60
2022-10-04T18:53:20.229Z,0.70
2022-10-04T18:56:13.276Z,0.60
2022-10-04T18:59:32.577Z,0.70
2022-10-04T19:02:18.604Z,0.70
2022-10-04T19:05:04.389Z,0.67
2022-10-04T19:08:05.549Z,0.60
2022-10-04T19:10:51.058Z,0.60
2022-10-04T19:13:34.174Z,0.60
2022-10-04T19:16:26.158Z,0.60
2022-10-04T19:19:22.924Z,0.60
2022-10-04T19:21:55.603Z,0.97
2022-10-04T19:24:40.709Z,1.27
2022-10-04T19:27:38.473Z,0.60
2022-10-04T19:30:22.995Z,0.53
2022-10-04T19:33:23.298Z,0.60
2022-10-04T19:36:36.599Z,0.70
2022-10-04T19:39:39.971Z,0.63
2022-10-04T19:42:38.164Z,0.60
2022-10-04T19:45:12.264Z,0.60
2022-10-04T19:47:58.343Z,0.80
2022-10-04T19:50:37.195Z,0.60
2022-10-04T19:53:37.304Z,0.70
2022-10-04T19:56:09.474Z,0.60
2022-10-04T19:58:47.084Z,0.60
2022-10-04T20:01:16.730Z,0.60
2022-10-04T20:03:45.686Z,0.60
2022-10-04T20:06:26.150Z,0.60
2022-10-04T20:09:02.600Z,0.70
2022-10-04T20:11:48.775Z,0.70
2022-10-04T20:17:08.149Z,0.60
2022-10-04T20:19:41.024Z,0.70
2022-10-04T20:22:10.078Z,0.70
2022-10-04T20:27:50.935Z,0.60
2022-10-04T20:30:23.113Z,0.60
2022-10-04T20:32:55.429Z,0.60
2022-10-04T20:36:00.584Z,0.80
2022-10-04T20:38:52.031Z,0.70
2022-10-04T20:41:49.787Z,0.63
2022-10-04T20:51:49.917Z,1.95
2022-10-04T20:54:19.000Z,0.70
2022-10-04T20:56:48.938Z,0.70
2022-10-04T20:59:17.952Z,0.80
2022-10-04T21:02:01.726Z,1.27
2022-10-04T21:04:41.755Z,0.60
2022-10-04T21:07:12.600Z,0.60
2022-10-04T21:09:42.177Z,3.30
2022-10-04T21:12:31.277Z,1.63
2022-10-04T21:15:20.971Z,0.67
2022-10-04T21:18:09.563Z,0.60
2022-10-04T21:20:54.031Z,0.70
2022-10-04T21:23:35.466Z,0.60
2022-10-04T21:26:22.799Z,0.50
2022-10-04T21:28:59.910Z,0.50
2022-10-04T21:31:27.982Z,0.60
2022-10-04T21:33:54.869Z,2.53
2022-10-04T21:36:21.953Z,0.60
2022-10-04T21:38:48.912Z,0.60
2022-10-04T21:41:16.809Z,0.60
2022-10-04T21:43:45.379Z,0.60
2022-10-04T21:46:19.325Z,0.60
2022-10-04T21:48:47.966Z,0.70
2022-10-04T21:51:16.328Z,0.50
2022-10-04T21:53:43.884Z,0.63
2022-10-04T21:56:11.739Z,0.60
2022-10-04T21:58:38.871Z,0.60
2022-10-04T22:01:07.436Z,0.60
2022-10-04T22:03:34.813Z,0.53
2022-10-04T22:06:03.187Z,0.60
2022-10-04T22:08:32.194Z,0.60
2022-10-04T22:11:00.004Z,1.00
2022-10-04T22:13:28.164Z,0.60
2022-10-04T22:15:56.433Z,0.60
2022-10-04T22:18:24.266Z,0.60
2022-10-04T22:20:52.838Z,0.70
2022-10-04T22:23:25.987Z,0.70
2022-10-04T22:25:54.844Z,0.60
2022-10-04T22:28:29.884Z,0.60
2022-10-04T22:30:57.173Z,0.60
2022-10-04T22:33:38.250Z,0.70
2022-10-04T22:36:29.697Z,0.60
2022-10-04T22:39:08.717Z,8.20
2022-10-04T22:41:42.422Z,0.60
2022-10-04T22:44:25.484Z,0.63
2022-10-04T22:46:58.759Z,0.60
2022-10-04T22:49:32.646Z,0.70
2022-10-04T22:52:02.532Z,7.30
2022-10-04T22:54:33.554Z,0.50
2022-10-04T22:57:00.871Z,0.60
2022-10-04T22:59:39.624Z,1.17
2022-10-04T23:02:21.998Z,0.60
2022-10-04T23:05:00.870Z,2.43
2022-10-04T23:07:33.772Z,0.63
2022-10-04T23:10:06.397Z,0.60
2022-10-04T23:12:33.980Z,0.60
2022-10-04T23:15:02.842Z,0.60
2022-10-04T23:17:34.774Z,0.70
2022-10-04T23:20:13.989Z,0.70
2022-10-04T23:22:54.897Z,0.70
2022-10-04T23:25:34.880Z,0.97
2022-10-04T23:28:12.150Z,0.67
2022-10-04T23:30:40.590Z,0.70
2022-10-04T23:33:17.805Z,0.60
2022-10-04T23:35:46.157Z,1.23
2022-10-04T23:38:20.428Z,0.70
2022-10-04T23:40:48.370Z,0.60
2022-10-04T23:43:20.195Z,0.70
2022-10-04T23:45:48.511Z,0.70
2022-10-04T23:48:23.203Z,0.80
2022-10-04T23:50:53.098Z,0.90
